createdAt,value
2019-02-26T00:00:36.777Z,6.90
2019-02-26T00:03:05.282Z,6.80
2019-02-26T00:05:33.779Z,6.53
2019-02-26T00:08:02.589Z,6.17
2019-02-26T00:10:32.315Z,6.63
2019-02-26T00:13:01.518Z,7.20
2019-02-26T00:15:33.355Z,6.20
2019-02-26T00:18:00.236Z,7.43
2019-02-26T00:20:31.280Z,8.50
2019-02-26T00:22:59.855Z,6.27
2019-02-26T00:25:29.265Z,6.53
2019-02-26T00:27:58.651Z,6.10
2019-02-26T00:30:27.376Z,6.43
2019-02-26T00:32:57.711Z,7.27
2019-02-26T00:35:27.616Z,6.03
2019-02-26T00:37:56.277Z,5.73
2019-02-26T00:40:24.779Z,8.40
2019-02-26T00:42:56.524Z,9.77
2019-02-26T00:45:26.895Z,7.33
2019-02-26T00:47:53.779Z,8.47
2019-02-26T00:50:22.285Z,8.17
2019-02-26T00:52:52.361Z,7.57
2019-02-26T00:55:23.137Z,6.53
2019-02-26T00:57:51.289Z,5.83
2019-02-26T01:00:19.792Z,6.03
2019-02-26T01:02:48.288Z,5.67
2019-02-26T01:05:16.898Z,5.77
2019-02-26T01:07:47.416Z,5.00
2019-02-26T01:10:16.414Z,5.23
2019-02-26T01:12:45.880Z,4.97
2019-02-26T01:15:19.155Z,8.53
2019-02-26T01:17:47.659Z,6.97
2019-02-26T01:20:19.314Z,6.73
2019-02-26T01:22:47.599Z,6.00
2019-02-26T01:25:18.498Z,5.17
2019-02-26T01:27:48.288Z,5.20
2019-02-26T01:30:20.743Z,4.77
2019-02-26T01:32:46.928Z,4.47
2019-02-26T01:35:15.441Z,7.60
2019-02-26T01:37:43.969Z,8.13
2019-02-26T01:40:15.826Z,6.83
2019-02-26T01:42:47.252Z,6.27
2019-02-26T01:45:13.824Z,8.73
2019-02-26T01:47:44.906Z,7.70
2019-02-26T01:50:13.967Z,6.80
2019-02-26T01:52:43.412Z,6.10
2019-02-26T01:55:12.307Z,6.20
2019-02-26T01:57:43.438Z,6.33
2019-02-26T02:00:16.598Z,9.77
2019-02-26T02:02:45.122Z,10.10
2019-02-26T02:05:13.651Z,9.10
2019-02-26T02:07:44.223Z,8.67
2019-02-26T02:10:15.124Z,8.53
2019-02-26T02:12:43.629Z,8.47
2019-02-26T02:15:18.239Z,8.37
2019-02-26T02:17:46.008Z,8.43
2019-02-26T02:20:20.823Z,8.50
2019-02-26T02:22:47.817Z,9.00
2019-02-26T02:25:16.325Z,10.00
2019-02-26T02:27:47.714Z,9.03
2019-02-26T02:30:22.402Z,8.07
2019-02-26T02:32:50.409Z,7.60
2019-02-26T02:35:19.102Z,7.13
2019-02-26T02:37:47.074Z,7.83
2019-02-26T02:40:15.587Z,8.87
2019-02-26T02:42:48.443Z,7.73
2019-02-26T02:45:16.983Z,7.27
2019-02-26T02:47:44.552Z,6.67
2019-02-26T02:50:15.074Z,6.30
2019-02-26T02:52:44.166Z,6.60
2019-02-26T02:55:15.635Z,5.80
2019-02-26T02:57:42.920Z,5.60
2019-02-26T03:00:16.102Z,9.00
2019-02-26T03:02:46.484Z,8.27
2019-02-26T03:05:14.834Z,9.03
2019-02-26T03:07:46.088Z,12.07
2019-02-26T03:10:15.205Z,11.23
2019-02-26T03:12:47.663Z,9.43
2019-02-26T03:15:15.071Z,9.23
2019-02-26T03:17:43.571Z,9.07
2019-02-26T03:20:15.149Z,11.73
2019-02-26T03:22:48.307Z,9.83
2019-02-26T03:25:20.977Z,13.53
2019-02-26T03:27:48.035Z,9.73
2019-02-26T03:30:27.461Z,10.10
2019-02-26T03:32:58.644Z,9.23
2019-02-26T03:35:23.804Z,8.67
2019-02-26T03:37:55.628Z,9.93
2019-02-26T03:40:24.097Z,10.67
2019-02-26T03:42:52.968Z,10.67
2019-02-26T03:45:24.723Z,11.87
2019-02-26T03:47:51.770Z,10.17
2019-02-26T03:50:20.258Z,9.93
2019-02-26T03:52:48.777Z,11.07
2019-02-26T03:55:18.934Z,10.80
2019-02-26T03:57:50.579Z,12.53
2019-02-26T04:00:19.854Z,11.30
2019-02-26T04:02:51.281Z,15.03
2019-02-26T04:05:18.933Z,12.10
2019-02-26T04:07:49.845Z,9.17
2019-02-26T04:10:17.679Z,8.33
2019-02-26T04:12:48.715Z,12.37
2019-02-26T04:15:17.455Z,17.67
2019-02-26T04:17:45.950Z,24.63
2019-02-26T04:20:15.258Z,15.83
2019-02-26T04:22:49.029Z,14.87
2019-02-26T04:25:33.958Z,16.27
2019-02-26T04:28:10.838Z,19.97
2019-02-26T04:30:56.980Z,13.83
2019-02-26T04:33:49.630Z,17.37
2019-02-26T04:36:27.342Z,19.60
2019-02-26T04:39:16.366Z,50.63
2019-02-26T04:42:09.436Z,18.30
2019-02-26T04:44:58.114Z,22.77
2019-02-26T04:47:30.782Z,32.47
2019-02-26T04:50:00.501Z,20.83
2019-02-26T04:52:29.581Z,45.37
2019-02-26T04:54:59.122Z,34.33
2019-02-26T04:57:27.702Z,22.20
2019-02-26T04:59:58.377Z,23.73
2019-02-26T05:02:26.436Z,14.23
2019-02-26T05:04:54.942Z,12.23
2019-02-26T05:07:23.467Z,15.67
2019-02-26T05:09:53.797Z,13.20
2019-02-26T05:12:25.111Z,16.30
2019-02-26T05:14:52.487Z,20.50
2019-02-26T05:17:23.795Z,19.80
2019-02-26T05:19:51.852Z,24.63
2019-02-26T05:22:24.870Z,34.63
2019-02-26T05:24:52.898Z,80.00
2019-02-26T05:27:22.750Z,45.00
2019-02-26T05:29:54.542Z,48.20
2019-02-26T05:32:26.557Z,25.90
2019-02-26T05:34:52.328Z,42.80
2019-02-26T05:37:20.825Z,31.07
2019-02-26T05:39:51.705Z,21.80
2019-02-26T05:42:19.567Z,16.37
2019-02-26T05:44:48.073Z,16.67
2019-02-26T05:47:18.671Z,17.03
2019-02-26T05:49:46.854Z,28.33
2019-02-26T05:52:15.428Z,31.90
2019-02-26T05:54:43.944Z,17.53
2019-02-26T05:57:27.196Z,40.90
2019-02-26T05:59:42.768Z,50.83
2019-02-26T06:02:13.409Z,28.77
2019-02-26T06:04:43.874Z,28.47
2019-02-26T06:07:11.749Z,21.20
2019-02-26T06:09:40.243Z,13.33
2019-02-26T06:12:08.803Z,11.07
2019-02-26T06:14:39.333Z,14.40
2019-02-26T06:17:09.698Z,16.63
2019-02-26T06:19:48.312Z,29.03
2019-02-26T06:22:18.214Z,26.83
2019-02-26T06:24:47.106Z,21.30
2019-02-26T06:27:18.309Z,24.80
2019-02-26T06:29:45.828Z,19.40
2019-02-26T06:32:16.139Z,12.80
2019-02-26T06:34:44.635Z,18.80
2019-02-26T06:37:16.632Z,32.73
2019-02-26T06:39:45.276Z,32.47
2019-02-26T06:42:14.512Z,56.20
2019-02-26T06:44:43.746Z,38.17
2019-02-26T06:47:13.396Z,33.50
2019-02-26T06:49:43.238Z,19.00
2019-02-26T06:52:13.125Z,38.00
2019-02-26T06:54:45.258Z,16.73
2019-02-26T06:57:12.636Z,85.73
2019-02-26T06:59:41.134Z,81.37
2019-02-26T07:02:11.034Z,72.07
2019-02-26T07:04:40.025Z,45.23
2019-02-26T07:07:12.190Z,29.67
2019-02-26T07:09:39.615Z,28.63
2019-02-26T07:12:08.974Z,44.63
2019-02-26T07:14:37.502Z,23.43
2019-02-26T07:17:05.974Z,21.90
2019-02-26T07:19:35.854Z,25.37
2019-02-26T07:22:05.417Z,29.00
2019-02-26T07:24:34.942Z,28.03
2019-02-26T07:27:04.301Z,47.17
2019-02-26T07:29:37.544Z,39.33
2019-02-26T07:32:03.927Z,33.00
2019-02-26T07:34:32.429Z,18.17
2019-02-26T07:37:00.945Z,17.20
2019-02-26T07:39:29.474Z,16.60
2019-02-26T07:41:57.971Z,17.60
2019-02-26T07:44:28.339Z,32.43
2019-02-26T07:46:58.436Z,27.93
2019-02-26T07:49:26.906Z,25.10
2019-02-26T07:51:57.411Z,29.10
2019-02-26T07:54:25.661Z,21.20
2019-02-26T07:56:55.116Z,22.97
2019-02-26T07:59:27.640Z,29.43
2019-02-26T08:01:54.635Z,41.00
2019-02-26T08:04:23.179Z,42.80
2019-02-26T08:06:52.416Z,105.97
2019-02-26T08:09:23.624Z,54.27
2019-02-26T08:11:52.201Z,58.30
2019-02-26T08:14:21.374Z,106.53
2019-02-26T08:16:53.669Z,74.33
2019-02-26T08:19:21.225Z,26.13
2019-02-26T08:21:50.362Z,45.40
2019-02-26T08:24:23.840Z,43.80
2019-02-26T08:26:50.186Z,25.97
2019-02-26T08:29:18.732Z,34.80
2019-02-26T08:31:49.398Z,37.57
2019-02-26T08:34:17.458Z,45.50
2019-02-26T08:36:46.773Z,53.00
2019-02-26T08:39:15.878Z,43.27
2019-02-26T08:41:56.762Z,41.00
2019-02-26T08:44:25.248Z,36.80
2019-02-26T08:46:53.746Z,37.17
2019-02-26T08:49:22.607Z,27.47
2019-02-26T08:51:51.076Z,33.33
2019-02-26T08:54:21.113Z,21.67
2019-02-26T08:56:49.840Z,28.63
2019-02-26T08:59:20.099Z,30.70
2019-02-26T09:01:48.723Z,34.27
2019-02-26T09:04:19.175Z,21.97
2019-02-26T09:06:47.491Z,17.30
2019-02-26T09:09:15.990Z,20.17
2019-02-26T09:11:44.506Z,23.93
2019-02-26T09:14:14.233Z,21.17
2019-02-26T09:16:43.236Z,15.87
2019-02-26T09:19:11.770Z,17.40
2019-02-26T09:21:42.608Z,15.97
2019-02-26T09:24:16.863Z,28.03
2019-02-26T09:26:45.358Z,26.17
2019-02-26T09:30:06.728Z,21.57
2019-02-26T09:32:44.862Z,16.27
2019-02-26T09:35:16.919Z,22.27
2019-02-26T09:37:47.324Z,17.63
2019-02-26T09:43:06.117Z,16.60
2019-02-26T09:45:34.845Z,14.70
2019-02-26T09:48:03.414Z,16.03
2019-02-26T09:50:31.902Z,15.33
2019-02-26T09:53:00.391Z,20.50
2019-02-26T09:55:28.940Z,20.43
2019-02-26T09:57:57.446Z,19.03
2019-02-26T10:00:29.117Z,19.83
2019-02-26T10:02:56.208Z,27.07
2019-02-26T10:05:24.700Z,24.27
2019-02-26T10:07:54.980Z,22.80
2019-02-26T10:10:26.054Z,46.27
2019-02-26T10:12:56.467Z,34.20
2019-02-26T10:15:24.419Z,20.67
2019-02-26T10:17:52.942Z,25.70
2019-02-26T10:20:31.016Z,17.07
2019-02-26T10:23:00.748Z,17.27
2019-02-26T10:25:31.037Z,16.60
2019-02-26T10:28:03.084Z,21.33
2019-02-26T10:30:31.404Z,20.67
2019-02-26T10:33:01.839Z,18.00
2019-02-26T10:35:33.272Z,16.83
2019-02-26T10:38:02.827Z,20.37
2019-02-26T10:40:35.303Z,16.80
2019-02-26T10:43:00.192Z,24.37
2019-02-26T10:45:29.591Z,26.23
2019-02-26T10:47:59.429Z,16.20
2019-02-26T10:50:31.788Z,16.37
2019-02-26T10:53:06.951Z,25.60
2019-02-26T10:55:35.319Z,19.70
2019-02-26T10:58:03.587Z,18.20
2019-02-26T11:00:32.176Z,21.73
2019-02-26T11:03:00.359Z,17.70
2019-02-26T11:05:28.865Z,19.57
2019-02-26T11:07:59.708Z,15.67
2019-02-26T11:10:27.608Z,17.43
2019-02-26T11:12:58.554Z,17.27
2019-02-26T11:15:29.793Z,24.23
2019-02-26T11:17:56.635Z,20.47
2019-02-26T11:20:27.834Z,15.27
2019-02-26T11:22:55.372Z,16.37
2019-02-26T11:25:26.524Z,15.60
2019-02-26T11:27:54.135Z,18.40
2019-02-26T11:30:28.535Z,17.07
2019-02-26T11:32:58.633Z,22.17
2019-02-26T11:35:25.405Z,17.37
2019-02-26T11:37:55.441Z,23.07
2019-02-26T11:40:28.100Z,24.00
2019-02-26T11:42:55.756Z,32.60
2019-02-26T11:45:24.666Z,17.20
2019-02-26T11:47:55.177Z,19.07
2019-02-26T11:50:28.025Z,18.90
2019-02-26T11:52:55.041Z,16.27
2019-02-26T11:55:26.177Z,18.10
2019-02-26T11:57:53.993Z,24.40
2019-02-26T12:00:37.322Z,33.60
2019-02-26T12:03:04.986Z,30.27
2019-02-26T12:05:35.890Z,36.60
2019-02-26T12:08:03.723Z,22.87
2019-02-26T12:10:33.205Z,21.67
2019-02-26T12:13:02.487Z,21.27
2019-02-26T12:15:33.457Z,28.47
2019-02-26T12:18:01.264Z,22.27
2019-02-26T12:20:30.577Z,15.97
2019-02-26T12:22:59.127Z,14.23
2019-02-26T12:25:27.634Z,18.60
2019-02-26T12:27:56.195Z,17.33
2019-02-26T12:30:26.504Z,23.40
2019-02-26T12:32:55.261Z,21.70
2019-02-26T12:35:23.805Z,21.70
2019-02-26T12:37:53.899Z,21.20
2019-02-26T12:40:25.336Z,19.20
2019-02-26T12:42:52.804Z,24.03
2019-02-26T12:45:22.702Z,14.70
2019-02-26T12:47:53.093Z,14.50
2019-02-26T12:50:26.096Z,16.23
2019-02-26T12:52:53.837Z,16.57
2019-02-26T12:55:28.970Z,19.33
2019-02-26T12:57:56.340Z,22.13
2019-02-26T13:00:24.493Z,20.63
2019-02-26T13:02:52.991Z,17.30
2019-02-26T13:05:23.013Z,20.07
2019-02-26T13:07:51.814Z,18.97
2019-02-26T13:10:27.758Z,18.73
2019-02-26T13:13:00.026Z,23.77
2019-02-26T13:15:26.490Z,19.20
2019-02-26T13:17:54.993Z,42.87
2019-02-26T13:20:29.488Z,20.77
2019-02-26T13:23:16.470Z,27.53
2019-02-26T13:25:28.265Z,19.93
2019-02-26T13:27:56.776Z,33.23
2019-02-26T13:30:25.887Z,27.73
2019-02-26T13:32:59.792Z,24.40
2019-02-26T13:35:24.632Z,29.63
2019-02-26T13:37:55.429Z,33.63
2019-02-26T13:40:24.721Z,23.10
2019-02-26T13:45:24.660Z,22.83
2019-02-26T13:48:00.732Z,29.70
2019-02-26T13:50:28.843Z,24.20
2019-02-26T13:52:57.314Z,26.27
2019-02-26T13:55:25.822Z,26.70
2019-02-26T13:57:54.335Z,16.60
2019-02-26T14:00:26.223Z,20.30
2019-02-26T14:02:53.242Z,21.50
2019-02-26T14:05:21.747Z,24.97
2019-02-26T14:07:50.278Z,19.43
2019-02-26T14:10:20.939Z,20.43
2019-02-26T14:12:49.504Z,41.90
2019-02-26T14:15:23.762Z,25.37
2019-02-26T14:17:52.569Z,19.03
2019-02-26T14:20:21.553Z,12.90
2019-02-26T14:22:50.066Z,14.60
2019-02-26T14:25:18.664Z,12.77
2019-02-26T14:27:47.190Z,16.73
2019-02-26T14:30:21.078Z,34.50
2019-02-26T14:32:49.616Z,21.97
2019-02-26T14:35:18.121Z,21.83
2019-02-26T14:37:46.698Z,39.27
2019-02-26T14:40:18.662Z,18.27
2019-02-26T14:42:47.167Z,19.37
2019-02-26T14:45:24.069Z,31.73
2019-02-26T14:47:52.579Z,27.73
2019-02-26T14:50:22.232Z,24.27
2019-02-26T14:52:50.740Z,42.30
2019-02-26T14:55:19.247Z,43.03
2019-02-26T14:57:47.780Z,36.87
2019-02-26T15:00:29.839Z,57.57
2019-02-26T15:02:58.465Z,31.53
2019-02-26T15:05:26.967Z,35.87
2019-02-26T15:07:55.466Z,34.40
2019-02-26T15:10:24.005Z,51.17
2019-02-26T15:12:52.591Z,59.57
2019-02-26T15:15:21.171Z,61.33
2019-02-26T15:17:49.697Z,43.17
2019-02-26T15:20:20.272Z,45.30
2019-02-26T15:22:48.849Z,51.53
2019-02-26T15:25:24.917Z,72.53
2019-02-26T15:27:53.469Z,85.60
2019-02-26T15:30:22.398Z,54.83
2019-02-26T15:32:50.961Z,32.03
2019-02-26T15:35:19.484Z,23.03
2019-02-26T15:37:48.006Z,18.43
2019-02-26T15:40:20.085Z,42.37
2019-02-26T15:42:52.445Z,31.03
2019-02-26T15:45:28.880Z,35.87
2019-02-26T15:47:56.851Z,24.97
2019-02-26T15:50:25.356Z,17.90
2019-02-26T15:52:53.862Z,22.87
2019-02-26T15:55:32.149Z,22.37
2019-02-26T15:58:04.343Z,21.23
2019-02-26T16:00:30.915Z,25.87
2019-02-26T16:03:00.127Z,23.90
2019-02-26T16:05:33.931Z,26.97
2019-02-26T16:08:02.434Z,27.93
2019-02-26T16:10:30.973Z,32.20
2019-02-26T16:13:05.706Z,27.13
2019-02-26T16:15:38.762Z,32.00
2019-02-26T16:18:07.255Z,26.27
2019-02-26T16:20:35.759Z,28.00
2019-02-26T16:23:04.258Z,21.33
2019-02-26T16:25:32.758Z,39.63
2019-02-26T16:28:01.320Z,54.63
2019-02-26T16:30:29.938Z,67.60
2019-02-26T16:32:58.545Z,153.47
2019-02-26T16:35:27.064Z,81.83
2019-02-26T16:37:55.577Z,117.23
2019-02-26T16:40:24.120Z,80.63
2019-02-26T16:42:52.626Z,74.43
2019-02-26T16:45:22.809Z,65.10
2019-02-26T16:47:51.320Z,75.27
2019-02-26T16:50:22.588Z,94.23
2019-02-26T16:52:51.130Z,54.30
2019-02-26T16:55:20.243Z,51.07
2019-02-26T16:57:48.925Z,62.57
2019-02-26T17:00:30.551Z,41.00
2019-02-26T17:03:01.013Z,44.93
2019-02-26T17:05:29.343Z,47.57
2019-02-26T17:07:58.114Z,41.30
2019-02-26T17:10:30.214Z,37.07
2019-02-26T17:13:01.985Z,36.70
2019-02-26T17:15:32.790Z,38.40
2019-02-26T17:18:01.334Z,51.97
2019-02-26T17:20:29.836Z,52.77
2019-02-26T17:22:58.350Z,51.80
2019-02-26T17:25:28.465Z,48.37
2019-02-26T17:27:57.224Z,52.13
2019-02-26T17:30:25.720Z,46.90
2019-02-26T17:32:54.238Z,56.20
2019-02-26T17:35:22.721Z,45.50
2019-02-26T17:37:51.269Z,39.87
2019-02-26T17:40:21.747Z,38.63
2019-02-26T17:42:51.242Z,48.53
2019-02-26T17:45:25.805Z,78.33
2019-02-26T17:47:56.472Z,91.10
2019-02-26T17:50:30.756Z,72.57
2019-02-26T17:52:59.257Z,108.30
2019-02-26T17:55:27.833Z,120.30
2019-02-26T17:57:56.345Z,154.70
2019-02-26T18:00:27.049Z,100.33
2019-02-26T18:02:55.626Z,83.37
2019-02-26T18:05:24.118Z,80.30
2019-02-26T18:07:52.616Z,71.13
2019-02-26T18:10:22.949Z,92.17
2019-02-26T18:12:51.461Z,46.67
2019-02-26T18:15:20.831Z,40.50
2019-02-26T18:17:49.554Z,40.40
2019-02-26T18:20:19.397Z,44.07
2019-02-26T18:22:47.952Z,46.53
2019-02-26T18:25:18.935Z,30.73
2019-02-26T18:27:47.449Z,36.23
2019-02-26T18:30:21.388Z,46.50
2019-02-26T18:32:50.652Z,50.80
2019-02-26T18:35:20.192Z,60.30
2019-02-26T18:37:48.720Z,51.93
2019-02-26T18:40:17.924Z,28.53
2019-02-26T18:42:46.650Z,39.73
2019-02-26T18:45:27.910Z,43.07
2019-02-26T18:47:56.598Z,40.00
2019-02-26T18:50:25.907Z,35.63
2019-02-26T18:52:55.324Z,27.47
2019-02-26T18:55:27.935Z,32.07
2019-02-26T18:57:54.524Z,40.73
2019-02-26T19:00:29.351Z,35.43
2019-02-26T19:02:57.875Z,23.23
2019-02-26T19:05:26.384Z,33.90
2019-02-26T19:07:54.897Z,45.13
2019-02-26T19:10:23.404Z,41.80
2019-02-26T19:12:51.937Z,26.33
2019-02-26T19:15:35.911Z,40.10
2019-02-26T19:18:04.482Z,82.23
2019-02-26T19:20:35.267Z,32.60
2019-02-26T19:23:03.748Z,23.47
2019-02-26T19:25:32.254Z,31.10
2019-02-26T19:28:00.766Z,26.47
2019-02-26T19:30:29.380Z,34.77
2019-02-26T19:32:57.878Z,36.40
2019-02-26T19:35:26.376Z,29.17
2019-02-26T19:37:57.695Z,78.60
2019-02-26T19:40:44.058Z,69.73
2019-02-26T19:43:12.587Z,100.43
2019-02-26T19:45:43.818Z,65.70
2019-02-26T19:48:11.328Z,54.43
2019-02-26T19:50:39.840Z,54.77
2019-02-26T19:53:08.362Z,51.10
2019-02-26T19:55:39.697Z,51.03
2019-02-26T19:58:08.205Z,39.53
2019-02-26T20:00:36.815Z,37.33
2019-02-26T20:03:06.249Z,81.63
2019-02-26T20:05:34.931Z,38.87
2019-02-26T20:08:05.348Z,36.60
2019-02-26T20:10:33.686Z,31.40
2019-02-26T20:13:04.004Z,24.23
2019-02-26T20:15:32.412Z,38.17
2019-02-26T20:18:00.921Z,27.00
2019-02-26T20:20:29.469Z,29.93
2019-02-26T20:22:57.970Z,26.90
2019-02-26T20:25:26.475Z,22.87
2019-02-26T20:27:58.066Z,27.50
2019-02-26T20:30:25.217Z,41.40
2019-02-26T20:32:53.773Z,29.47
2019-02-26T20:35:22.323Z,28.07
2019-02-26T20:37:50.842Z,25.87
2019-02-26T20:40:21.712Z,34.90
2019-02-26T20:42:50.228Z,31.40
2019-02-26T20:45:19.477Z,32.93
2019-02-26T20:47:47.973Z,39.73
2019-02-26T20:50:19.993Z,30.80
2019-02-26T20:52:46.734Z,34.83
2019-02-26T20:55:19.125Z,40.30
2019-02-26T20:57:48.486Z,27.30
2019-02-26T21:00:18.591Z,35.37
2019-02-26T21:02:47.393Z,44.07
2019-02-26T21:05:15.907Z,36.70
2019-02-26T21:07:44.407Z,41.53
2019-02-26T21:10:17.642Z,45.10
2019-02-26T21:12:46.141Z,33.53
2019-02-26T21:15:19.979Z,32.70
2019-02-26T21:17:48.486Z,24.83
2019-02-26T21:20:16.987Z,23.27
2019-02-26T21:22:45.530Z,22.27
2019-02-26T21:25:14.453Z,24.47
2019-02-26T21:27:42.939Z,21.50
2019-02-26T21:30:19.837Z,22.47
2019-02-26T21:32:48.335Z,21.80
2019-02-26T21:35:20.067Z,21.80
2019-02-26T21:37:48.302Z,19.70
2019-02-26T21:40:17.171Z,19.13
2019-02-26T21:42:45.704Z,20.47
2019-02-26T21:45:17.874Z,20.23
2019-02-26T21:47:46.369Z,20.93
2019-02-26T21:50:15.579Z,20.60
2019-02-26T21:52:44.076Z,21.47
2019-02-26T21:55:13.612Z,21.17
2019-02-26T21:57:42.118Z,20.43
2019-02-26T22:00:20.286Z,20.63
2019-02-26T22:02:51.938Z,21.27
2019-02-26T22:05:19.186Z,19.67
2019-02-26T22:07:52.069Z,19.67
2019-02-26T22:10:22.443Z,19.00
2019-02-26T22:12:50.978Z,20.83
2019-02-26T22:15:19.474Z,19.77
2019-02-26T22:17:47.985Z,19.67
2019-02-26T22:20:35.539Z,19.83
2019-02-26T22:22:50.290Z,19.43
2019-02-26T22:25:18.894Z,20.30
2019-02-26T22:27:47.427Z,20.00
2019-02-26T22:30:21.463Z,18.37
2019-02-26T22:32:47.479Z,18.03
2019-02-26T22:35:15.976Z,18.67
2019-02-26T22:37:44.515Z,18.80
2019-02-26T22:40:14.017Z,18.20
2019-02-26T22:42:42.531Z,18.00
2019-02-26T22:45:13.486Z,19.70
2019-02-26T22:47:43.918Z,17.70
2019-02-26T22:50:14.328Z,18.13
2019-02-26T22:52:43.627Z,18.47
2019-02-26T22:55:17.172Z,18.50
2019-02-26T22:57:45.805Z,19.23
2019-02-26T23:00:27.993Z,19.13
2019-02-26T23:02:56.496Z,18.00
2019-02-26T23:05:25.638Z,17.67
2019-02-26T23:07:54.635Z,19.50
2019-02-26T23:10:24.729Z,19.07
2019-02-26T23:12:53.358Z,17.47
2019-02-26T23:15:21.870Z,18.77
2019-02-26T23:17:50.368Z,18.33
2019-02-26T23:20:18.927Z,17.90
2019-02-26T23:22:47.410Z,17.57
2019-02-26T23:25:16.003Z,17.57
2019-02-26T23:27:46.036Z,18.00
2019-02-26T23:30:14.934Z,19.03
2019-02-26T23:32:43.493Z,17.97
2019-02-26T23:35:14.152Z,19.40
2019-02-26T23:37:42.679Z,19.53
2019-02-26T23:40:12.062Z,18.07
2019-02-26T23:42:40.562Z,18.63
2019-02-26T23:45:10.801Z,18.63
2019-02-26T23:47:39.299Z,18.60
2019-02-26T23:50:09.401Z,18.63
2019-02-26T23:52:37.910Z,18.53
2019-02-26T23:55:08.009Z,18.27
2019-02-26T23:57:36.558Z,17.97
